Time;durP1;ratioP1;P1;durP2;ratioP2;P2;SDS_P1;SDS_P2;PMS_P1;PMS_P2;Temp;Humidity;BMP_temperature;BMP_pressure;BME280_temperature;BME280_humidity;BME280_pressure;Samples;Min_cycle;Max_cycle;Signal;HPM_P1;HPM_P2
2022/10/16 00:00:40;;;;;;;2.53;2.33;;;;;;;;;;5052127;28;20540;-78
2022/10/16 00:03:07;;;;;;;3.77;2.60;;;;;;;;;;5052022;28;20441;-78
2022/10/16 00:05:39;;;;;;;2.87;2.57;;;;;;;;;;5052158;28;20450;-79
2022/10/16 00:08:06;;;;;;;3.00;2.60;;;;;;;;;;5052396;28;20812;-78
2022/10/16 00:10:34;;;;;;;2.93;2.53;;;;;;;;;;5052464;28;20468;-79
2022/10/16 00:13:01;;;;;;;2.87;2.67;;;;;;;;;;5066451;28;20929;-77
2022/10/16 00:15:28;;;;;;;3.10;2.80;;;;;;;;;;5072046;28;20965;-78
2022/10/16 00:17:55;;;;;;;5.57;3.20;;;;;;;;;;5071942;28;20475;-78
2022/10/16 00:20:23;;;;;;;3.40;3.10;;;;;;;;;;5072258;28;20468;-78
2022/10/16 00:22:50;;;;;;;2.93;2.73;;;;;;;;;;5071367;28;20444;-78
2022/10/16 00:25:17;;;;;;;3.13;2.80;;;;;;;;;;5071833;28;20444;-77
2022/10/16 00:27:45;;;;;;;4.20;3.80;;;;;;;;;;5071830;28;20451;-78
2022/10/16 00:30:15;;;;;;;7.30;4.23;;;;;;;;;;5072291;28;20464;-78
2022/10/16 00:32:42;;;;;;;3.83;3.03;;;;;;;;;;5071559;28;20453;-78
2022/10/16 00:35:09;;;;;;;3.13;2.90;;;;;;;;;;5072062;28;20452;-79
2022/10/16 00:37:36;;;;;;;3.10;2.90;;;;;;;;;;5071650;28;20832;-78
2022/10/16 00:40:04;;;;;;;2.83;2.50;;;;;;;;;;5072008;28;20895;-78
2022/10/16 00:42:31;;;;;;;4.20;2.83;;;;;;;;;;5071887;28;20523;-78
2022/10/16 00:44:59;;;;;;;3.10;2.57;;;;;;;;;;5072084;28;20456;-78
2022/10/16 00:47:29;;;;;;;3.50;2.40;;;;;;;;;;5071716;28;20598;-78
2022/10/16 00:49:59;;;;;;;2.70;2.50;;;;;;;;;;5071329;28;20456;-79
2022/10/16 00:52:27;;;;;;;2.40;2.20;;;;;;;;;;5071447;28;20455;-78
2022/10/16 00:54:55;;;;;;;2.57;2.37;;;;;;;;;;5071083;28;20445;-78
2022/10/16 00:57:22;;;;;;;3.00;2.80;;;;;;;;;;5071612;28;20947;-79
2022/10/16 00:59:49;;;;;;;3.00;2.57;;;;;;;;;;5071520;28;20514;-78
2022/10/16 01:02:18;;;;;;;3.20;3.00;;;;;;;;;;5071379;28;20445;-78
2022/10/16 01:04:47;;;;;;;2.87;2.67;;;;;;;;;;5070574;28;20456;-79
2022/10/16 01:07:15;;;;;;;2.83;2.63;;;;;;;;;;5071344;28;20452;-79
2022/10/16 01:09:48;;;;;;;3.17;2.97;;;;;;;;;;5072134;28;20437;-78
2022/10/16 01:12:17;;;;;;;2.80;2.60;;;;;;;;;;5062981;28;20480;-77
2022/10/16 01:14:47;;;;;;;4.27;2.90;;;;;;;;;;5050462;28;20433;-78
2022/10/16 01:17:16;;;;;;;3.33;2.73;;;;;;;;;;5052077;28;20462;-78
2022/10/16 01:19:56;;;;;;;3.07;2.87;;;;;;;;;;5061892;28;20520;-79
2022/10/16 01:22:24;;;;;;;2.67;2.50;;;;;;;;;;5056709;28;20451;-79
2022/10/16 01:24:52;;;;;;;3.33;3.03;;;;;;;;;;5070165;28;20520;-78
2022/10/16 01:27:22;;;;;;;4.13;2.70;;;;;;;;;;5069734;28;20463;-78
2022/10/16 01:29:54;;;;;;;3.00;2.60;;;;;;;;;;5065709;28;20515;-78
2022/10/16 01:32:23;;;;;;;2.40;2.20;;;;;;;;;;5070606;28;20771;-79
2022/10/16 01:34:52;;;;;;;5.20;2.70;;;;;;;;;;5060437;28;20493;-78
2022/10/16 01:37:23;;;;;;;3.00;2.80;;;;;;;;;;5071244;28;20455;-78
2022/10/16 01:39:51;;;;;;;2.60;2.40;;;;;;;;;;5070146;28;20491;-78
2022/10/16 01:42:20;;;;;;;3.10;2.80;;;;;;;;;;5070976;28;20443;-77
2022/10/16 01:44:50;;;;;;;2.97;2.80;;;;;;;;;;5070029;28;20565;-77
2022/10/16 01:47:19;;;;;;;2.60;2.40;;;;;;;;;;5071027;28;20440;-78
2022/10/16 01:49:46;;;;;;;4.40;2.77;;;;;;;;;;5071145;28;20797;-78
2022/10/16 01:52:15;;;;;;;2.73;2.53;;;;;;;;;;5070573;28;20955;-77
2022/10/16 01:54:43;;;;;;;3.40;2.37;;;;;;;;;;5070082;28;20452;-78
2022/10/16 01:57:11;;;;;;;4.47;2.40;;;;;;;;;;5070302;28;20444;-78
2022/10/16 01:59:41;;;;;;;2.00;1.90;;;;;;;;;;5070250;28;20975;-78
2022/10/16 02:02:11;;;;;;;2.10;2.00;;;;;;;;;;5070924;28;20556;-77
2022/10/16 02:04:39;;;;;;;2.60;2.40;;;;;;;;;;5070082;28;20798;-78
2022/10/16 02:07:07;;;;;;;4.50;2.10;;;;;;;;;;5070187;28;20449;-78
2022/10/16 02:09:34;;;;;;;3.43;2.37;;;;;;;;;;5070578;28;20436;-78
2022/10/16 02:12:02;;;;;;;2.10;2.00;;;;;;;;;;5070334;28;20464;-79
2022/10/16 02:14:30;;;;;;;2.43;2.23;;;;;;;;;;5070360;28;21081;-79
2022/10/16 02:16:57;;;;;;;2.93;2.73;;;;;;;;;;5070522;28;20476;-79
2022/10/16 02:19:25;;;;;;;3.93;2.43;;;;;;;;;;5070008;28;21003;-78
2022/10/16 02:21:55;;;;;;;2.00;1.90;;;;;;;;;;5070574;28;20457;-79
2022/10/16 02:24:28;;;;;;;2.60;2.40;;;;;;;;;;5069727;28;21080;-77
2022/10/16 02:26:59;;;;;;;2.80;2.37;;;;;;;;;;5070483;28;20428;-77
2022/10/16 02:29:27;;;;;;;2.97;2.50;;;;;;;;;;5070370;28;20967;-78
2022/10/16 02:31:57;;;;;;;2.73;2.53;;;;;;;;;;5070468;28;20484;-78
2022/10/16 02:34:27;;;;;;;3.60;2.43;;;;;;;;;;5070035;28;20448;-77
2022/10/16 02:36:54;;;;;;;2.53;2.27;;;;;;;;;;5070355;28;20432;-77
2022/10/16 02:39:22;;;;;;;2.70;2.50;;;;;;;;;;5070186;28;20488;-77
2022/10/16 02:41:49;;;;;;;2.20;2.10;;;;;;;;;;5070013;28;20464;-78
2022/10/16 02:44:16;;;;;;;3.20;2.20;;;;;;;;;;5069797;28;20448;-78
2022/10/16 02:46:43;;;;;;;2.10;2.00;;;;;;;;;;5069724;28;20937;-77
2022/10/16 02:49:10;;;;;;;2.43;2.23;;;;;;;;;;5069821;28;20448;-78
2022/10/16 02:51:38;;;;;;;2.53;2.33;;;;;;;;;;5073939;28;20468;-78
2022/10/16 02:54:05;;;;;;;2.30;2.20;;;;;;;;;;5073097;28;20456;-77
2022/10/16 02:56:33;;;;;;;2.80;2.50;;;;;;;;;;5073521;28;20451;-78
2022/10/16 02:59:00;;;;;;;3.30;2.40;;;;;;;;;;5073756;28;20522;-78
2022/10/16 03:01:27;;;;;;;2.40;2.13;;;;;;;;;;5073485;28;20979;-78
2022/10/16 03:03:54;;;;;;;2.13;1.93;;;;;;;;;;5073294;28;20527;-78
2022/10/16 03:06:21;;;;;;;2.53;2.37;;;;;;;;;;5073827;28;20452;-78
2022/10/16 03:08:49;;;;;;;2.50;2.03;;;;;;;;;;5073511;28;20464;-77
2022/10/16 03:11:16;;;;;;;2.20;2.10;;;;;;;;;;5073446;28;20487;-77
2022/10/16 03:13:43;;;;;;;3.13;2.20;;;;;;;;;;5073009;28;20475;-77
2022/10/16 03:16:10;;;;;;;3.30;2.47;;;;;;;;;;5073929;28;20444;-77
2022/10/16 03:18:38;;;;;;;2.00;1.90;;;;;;;;;;5073708;28;20459;-77
2022/10/16 03:21:05;;;;;;;2.60;2.40;;;;;;;;;;5073369;28;21018;-77
2022/10/16 03:23:32;;;;;;;2.43;2.20;;;;;;;;;;5072816;28;20436;-78
2022/10/16 03:26:01;;;;;;;2.30;2.20;;;;;;;;;;5073627;28;20453;-78
2022/10/16 03:28:28;;;;;;;2.10;2.00;;;;;;;;;;5073375;28;20820;-78
2022/10/16 03:30:55;;;;;;;3.00;2.40;;;;;;;;;;5073463;28;20491;-78
2022/10/16 03:33:22;;;;;;;3.60;2.30;;;;;;;;;;5070015;28;20449;-78
2022/10/16 03:35:53;;;;;;;2.73;2.53;;;;;;;;;;5067671;28;20446;-78
2022/10/16 03:38:20;;;;;;;4.57;2.70;;;;;;;;;;5066418;28;20467;-78
2022/10/16 03:40:48;;;;;;;2.57;2.23;;;;;;;;;;5072708;28;20854;-78
2022/10/16 03:43:16;;;;;;;4.13;2.07;;;;;;;;;;5071869;28;20527;-78
2022/10/16 03:45:43;;;;;;;2.60;2.40;;;;;;;;;;5073184;28;20792;-78
2022/10/16 03:48:10;;;;;;;7.07;2.73;;;;;;;;;;5072529;28;20798;-78
2022/10/16 03:50:38;;;;;;;2.30;2.20;;;;;;;;;;5072642;28;20453;-78
2022/10/16 03:53:05;;;;;;;4.40;2.97;;;;;;;;;;5072189;28;20451;-77
2022/10/16 03:55:32;;;;;;;2.67;2.43;;;;;;;;;;5072870;28;20554;-78
2022/10/16 03:57:59;;;;;;;4.20;2.80;;;;;;;;;;5073324;28;20448;-78
2022/10/16 04:00:27;;;;;;;2.73;2.53;;;;;;;;;;5072749;28;20496;-78
2022/10/16 04:02:54;;;;;;;2.80;2.63;;;;;;;;;;5071880;28;20447;-78
2022/10/16 04:05:22;;;;;;;3.83;2.53;;;;;;;;;;5072556;28;20444;-78
2022/10/16 04:07:49;;;;;;;2.67;2.30;;;;;;;;;;5072832;28;20447;-79
2022/10/16 04:10:16;;;;;;;3.20;2.90;;;;;;;;;;5071926;28;20782;-78
2022/10/16 04:12:43;;;;;;;3.87;3.13;;;;;;;;;;5060736;28;20444;-77
2022/10/16 04:15:10;;;;;;;3.43;2.70;;;;;;;;;;5068278;28;20436;-78
2022/10/16 04:17:39;;;;;;;4.70;3.07;;;;;;;;;;5064517;28;20952;-78
2022/10/16 04:20:07;;;;;;;5.67;2.30;;;;;;;;;;5063999;28;20468;-78
2022/10/16 04:22:34;;;;;;;2.50;2.40;;;;;;;;;;5068045;28;20452;-78
2022/10/16 04:25:01;;;;;;;2.73;2.60;;;;;;;;;;5070780;28;20485;-77
2022/10/16 04:27:28;;;;;;;3.10;2.60;;;;;;;;;;5061072;28;20448;-77
2022/10/16 04:29:55;;;;;;;6.40;2.60;;;;;;;;;;5060445;28;20484;-76
2022/10/16 04:32:22;;;;;;;2.30;2.10;;;;;;;;;;5083043;28;20464;-78
2022/10/16 04:34:50;;;;;;;2.43;2.30;;;;;;;;;;5089908;28;20459;-77
2022/10/16 04:37:24;;;;;;;4.73;3.00;;;;;;;;;;5088972;28;20445;-78
2022/10/16 04:39:51;;;;;;;2.80;2.60;;;;;;;;;;5084252;28;20553;-78
2022/10/16 04:42:18;;;;;;;3.30;2.30;;;;;;;;;;5074792;28;20444;-77
2022/10/16 04:44:45;;;;;;;2.33;2.23;;;;;;;;;;5072175;28;20444;-77
2022/10/16 04:47:12;;;;;;;2.70;2.47;;;;;;;;;;5072038;28;20451;-77
2022/10/16 04:49:39;;;;;;;2.80;2.60;;;;;;;;;;5072242;28;20987;-77
2022/10/16 04:52:08;;;;;;;5.50;2.83;;;;;;;;;;5072570;28;20471;-77
2022/10/16 04:54:36;;;;;;;5.07;3.20;;;;;;;;;;5073762;28;20456;-77
2022/10/16 04:57:04;;;;;;;3.10;2.80;;;;;;;;;;5083708;28;20451;-78
2022/10/16 04:59:31;;;;;;;5.97;3.07;;;;;;;;;;5082037;28;20440;-78
2022/10/16 05:01:58;;;;;;;3.47;3.17;;;;;;;;;;5071903;28;20465;-78
2022/10/16 05:04:25;;;;;;;14.53;3.70;;;;;;;;;;5061645;28;20449;-77
2022/10/16 05:06:52;;;;;;;5.50;3.37;;;;;;;;;;5056468;28;20454;-78
2022/10/16 05:09:21;;;;;;;4.13;3.50;;;;;;;;;;5066337;28;20476;-77
2022/10/16 05:11:48;;;;;;;3.53;3.23;;;;;;;;;;5064825;28;20473;-78
2022/10/16 05:14:15;;;;;;;3.80;3.50;;;;;;;;;;5070147;28;20467;-77
2022/10/16 05:16:42;;;;;;;4.77;3.70;;;;;;;;;;5070695;28;20936;-79
2022/10/16 05:19:10;;;;;;;3.00;2.80;;;;;;;;;;5071188;28;20448;-78
2022/10/16 05:21:37;;;;;;;5.73;3.20;;;;;;;;;;5070930;28;20491;-77
2022/10/16 05:24:04;;;;;;;3.63;3.43;;;;;;;;;;5070259;28;20451;-78
2022/10/16 05:26:32;;;;;;;3.83;3.20;;;;;;;;;;5070937;28;20457;-78
2022/10/16 05:28:59;;;;;;;3.57;3.10;;;;;;;;;;5070813;28;20823;-78
2022/10/16 05:31:26;;;;;;;4.00;3.30;;;;;;;;;;5070260;28;20465;-77
2022/10/16 05:33:53;;;;;;;3.17;2.97;;;;;;;;;;5070201;28;20445;-76
2022/10/16 05:36:20;;;;;;;3.37;3.17;;;;;;;;;;5065718;28;20457;-77
2022/10/16 05:38:51;;;;;;;5.27;3.13;;;;;;;;;;5062972;28;20453;-77
2022/10/16 05:41:26;;;;;;;4.63;3.17;;;;;;;;;;5072570;28;20477;-78
2022/10/16 05:43:54;;;;;;;5.20;2.90;;;;;;;;;;5071131;28;20445;-78
2022/10/16 05:46:21;;;;;;;5.50;4.93;;;;;;;;;;5068535;28;20441;-78
2022/10/16 05:48:48;;;;;;;5.43;4.93;;;;;;;;;;5067620;28;20466;-78
2022/10/16 05:51:16;;;;;;;4.40;4.00;;;;;;;;;;5058024;28;20466;-77
2022/10/16 05:53:43;;;;;;;3.30;3.10;;;;;;;;;;5061960;28;20449;-77
2022/10/16 05:56:11;;;;;;;4.80;2.80;;;;;;;;;;5065379;28;20450;-77
2022/10/16 05:58:40;;;;;;;3.50;3.20;;;;;;;;;;5065393;28;20449;-78
2022/10/16 06:01:09;;;;;;;6.73;3.13;;;;;;;;;;5061881;28;20476;-78
2022/10/16 06:03:36;;;;;;;5.30;3.03;;;;;;;;;;5059811;28;20463;-78
2022/10/16 06:06:08;;;;;;;4.13;3.73;;;;;;;;;;5060743;28;20984;-78
2022/10/16 06:08:35;;;;;;;3.30;3.00;;;;;;;;;;5060356;28;20811;-78
2022/10/16 06:11:03;;;;;;;4.23;3.87;;;;;;;;;;5067155;28;20480;-78
2022/10/16 06:13:30;;;;;;;5.23;4.73;;;;;;;;;;5050423;28;20937;-78
2022/10/16 06:15:58;;;;;;;7.33;3.80;;;;;;;;;;5050476;28;20449;-77
2022/10/16 06:18:26;;;;;;;4.00;3.10;;;;;;;;;;5050289;28;20442;-78
2022/10/16 06:20:53;;;;;;;3.30;3.07;;;;;;;;;;5050566;28;20866;-76
2022/10/16 06:23:21;;;;;;;3.43;2.80;;;;;;;;;;5049124;28;20980;-77
2022/10/16 06:25:49;;;;;;;3.43;3.13;;;;;;;;;;5053342;28;20464;-78
2022/10/16 06:28:17;;;;;;;3.80;3.00;;;;;;;;;;5067849;28;20472;-78
2022/10/16 06:30:44;;;;;;;2.70;2.50;;;;;;;;;;5067457;28;20801;-78
2022/10/16 06:33:14;;;;;;;3.40;2.80;;;;;;;;;;5065384;28;20444;-77
2022/10/16 06:35:42;;;;;;;2.90;2.67;;;;;;;;;;5072210;28;20521;-77
2022/10/16 06:38:09;;;;;;;3.30;3.10;;;;;;;;;;5066364;28;20820;-77
2022/10/16 06:40:36;;;;;;;3.90;3.60;;;;;;;;;;5073573;28;21014;-78
2022/10/16 06:43:03;;;;;;;3.77;3.47;;;;;;;;;;5073207;28;20940;-77
2022/10/16 06:45:30;;;;;;;3.43;2.77;;;;;;;;;;5073954;28;20440;-77
2022/10/16 06:47:57;;;;;;;6.93;3.10;;;;;;;;;;5073546;28;20452;-77
2022/10/16 06:50:24;;;;;;;3.47;3.00;;;;;;;;;;5074036;28;20464;-77
2022/10/16 06:52:53;;;;;;;5.83;4.40;;;;;;;;;;5073449;28;20433;-76
2022/10/16 06:55:20;;;;;;;5.47;4.97;;;;;;;;;;5073660;28;20448;-78
2022/10/16 06:57:48;;;;;;;4.97;4.47;;;;;;;;;;5073790;28;20440;-77
2022/10/16 07:00:15;;;;;;;4.27;3.63;;;;;;;;;;5070230;28;20819;-78
2022/10/16 07:02:42;;;;;;;4.70;4.30;;;;;;;;;;5052442;28;20956;-77
2022/10/16 07:05:10;;;;;;;3.97;3.67;;;;;;;;;;5072850;28;20463;-79
2022/10/16 07:07:37;;;;;;;3.53;3.13;;;;;;;;;;5073962;28;20448;-78
2022/10/16 07:10:06;;;;;;;4.27;3.30;;;;;;;;;;5073524;28;20436;-77
2022/10/16 07:12:33;;;;;;;4.47;3.60;;;;;;;;;;5061587;28;20445;-77
2022/10/16 07:15:00;;;;;;;5.57;3.33;;;;;;;;;;5053272;28;20449;-78
2022/10/16 07:17:27;;;;;;;3.63;2.70;;;;;;;;;;5053647;28;20433;-78
2022/10/16 07:19:55;;;;;;;4.40;2.90;;;;;;;;;;5054074;28;20433;-78
2022/10/16 07:22:22;;;;;;;2.93;2.83;;;;;;;;;;5053066;28;20429;-78
2022/10/16 07:24:50;;;;;;;3.17;2.90;;;;;;;;;;5052879;28;20441;-78
2022/10/16 07:27:18;;;;;;;3.60;3.30;;;;;;;;;;5053560;28;20960;-77
2022/10/16 07:29:45;;;;;;;5.53;3.13;;;;;;;;;;5052675;28;20444;-77
2022/10/16 07:32:12;;;;;;;5.83;2.80;;;;;;;;;;5053205;28;20467;-78
2022/10/16 07:34:39;;;;;;;4.23;3.87;;;;;;;;;;5052941;28;20442;-77
2022/10/16 07:37:06;;;;;;;4.80;3.60;;;;;;;;;;5058896;28;20522;-77
2022/10/16 07:39:33;;;;;;;5.57;3.07;;;;;;;;;;5065757;28;20437;-77
2022/10/16 07:42:00;;;;;;;3.90;3.50;;;;;;;;;;5062277;28;20482;-78
2022/10/16 07:44:29;;;;;;;3.80;3.23;;;;;;;;;;5053821;28;20449;-78
2022/10/16 07:46:56;;;;;;;4.10;3.17;;;;;;;;;;5053631;28;20438;-78
2022/10/16 07:49:23;;;;;;;3.27;2.97;;;;;;;;;;5054413;28;20640;-78
2022/10/16 07:51:50;;;;;;;3.10;2.83;;;;;;;;;;5054875;28;20752;-78
2022/10/16 07:54:17;;;;;;;5.10;2.87;;;;;;;;;;5053777;28;20452;-78
2022/10/16 07:56:44;;;;;;;3.60;3.10;;;;;;;;;;5054096;28;20445;-77
2022/10/16 07:59:11;;;;;;;3.70;3.10;;;;;;;;;;5054151;28;20445;-77
2022/10/16 08:01:41;;;;;;;4.10;3.20;;;;;;;;;;5053758;28;20853;-77
2022/10/16 08:04:09;;;;;;;6.43;3.57;;;;;;;;;;5052662;28;20453;-77
2022/10/16 08:06:37;;;;;;;3.33;3.07;;;;;;;;;;5053016;28;20544;-77
2022/10/16 08:09:04;;;;;;;5.60;3.03;;;;;;;;;;5053743;28;20815;-78
2022/10/16 08:11:31;;;;;;;3.90;3.00;;;;;;;;;;5054863;28;20512;-78
2022/10/16 08:13:58;;;;;;;3.60;2.90;;;;;;;;;;5072051;28;20444;-78
2022/10/16 08:16:25;;;;;;;5.73;2.77;;;;;;;;;;5074849;28;20455;-77
2022/10/16 08:18:54;;;;;;;2.97;2.77;;;;;;;;;;5073117;28;20440;-78
2022/10/16 08:21:22;;;;;;;3.90;3.33;;;;;;;;;;5072426;28;20476;-77
2022/10/16 08:23:50;;;;;;;12.83;11.73;;;;;;;;;;5071954;28;20559;-78
2022/10/16 08:26:18;;;;;;;2.60;2.40;;;;;;;;;;5072632;28;20455;-77
2022/10/16 08:28:46;;;;;;;2.37;2.17;;;;;;;;;;5072288;28;20445;-78
2022/10/16 08:31:13;;;;;;;2.20;2.10;;;;;;;;;;5072978;28;20464;-80
2022/10/16 08:33:42;;;;;;;2.57;2.20;;;;;;;;;;5071766;28;20448;-81
2022/10/16 08:36:11;;;;;;;2.30;2.10;;;;;;;;;;5073127;28;20441;-78
2022/10/16 08:38:38;;;;;;;3.10;2.80;;;;;;;;;;5072678;28;20979;-79
2022/10/16 08:41:19;;;;;;;2.30;2.20;;;;;;;;;;5072324;28;20484;-78
2022/10/16 08:43:56;;;;;;;4.43;2.73;;;;;;;;;;5072117;28;20677;-78
2022/10/16 08:46:32;;;;;;;2.37;2.17;;;;;;;;;;5073160;28;20445;-79
2022/10/16 08:49:00;;;;;;;3.73;2.13;;;;;;;;;;5076600;28;20538;-79
2022/10/16 08:51:29;;;;;;;2.77;1.90;;;;;;;;;;5085666;28;20520;-79
2022/10/16 08:53:57;;;;;;;2.20;2.00;;;;;;;;;;5077643;28;20440;-79
2022/10/16 08:56:25;;;;;;;2.70;2.33;;;;;;;;;;5075158;28;20433;-78
2022/10/16 08:58:52;;;;;;;2.97;2.00;;;;;;;;;;5075174;28;20456;-80
2022/10/16 09:01:22;;;;;;;3.00;1.90;;;;;;;;;;5074424;28;20484;-79
2022/10/16 09:04:00;;;;;;;1.87;1.77;;;;;;;;;;5073059;28;20460;-79
2022/10/16 09:06:32;;;;;;;6.10;2.10;;;;;;;;;;5071883;28;20448;-78
2022/10/16 09:09:07;;;;;;;2.83;2.63;;;;;;;;;;5071289;28;20451;-79
2022/10/16 09:11:39;;;;;;;2.97;2.67;;;;;;;;;;5068909;28;20453;-78
2022/10/16 09:14:09;;;;;;;3.70;2.33;;;;;;;;;;5051988;28;20857;-78
2022/10/16 09:16:38;;;;;;;2.73;2.40;;;;;;;;;;5052910;28;20441;-78
2022/10/16 09:19:10;;;;;;;2.40;2.20;;;;;;;;;;5053537;28;20452;-77
2022/10/16 09:21:42;;;;;;;2.33;2.07;;;;;;;;;;5053999;28;20482;-78
2022/10/16 09:24:12;;;;;;;3.10;2.80;;;;;;;;;;5053848;28;20476;-78
2022/10/16 09:26:39;;;;;;;2.20;1.97;;;;;;;;;;5053164;28;20476;-78
2022/10/16 09:29:06;;;;;;;5.20;2.60;;;;;;;;;;5053500;28;20449;-78
2022/10/16 09:31:33;;;;;;;2.13;1.97;;;;;;;;;;5053420;28;20492;-78
2022/10/16 09:34:04;;;;;;;3.10;2.03;;;;;;;;;;5053332;28;20496;-79
2022/10/16 09:36:32;;;;;;;2.20;2.03;;;;;;;;;;5059853;28;21014;-78
2022/10/16 09:39:07;;;;;;;2.43;2.10;;;;;;;;;;5063306;28;20440;-78
2022/10/16 09:41:36;;;;;;;2.30;2.20;;;;;;;;;;5089315;28;20491;-78
2022/10/16 09:44:03;;;;;;;2.90;1.60;;;;;;;;;;5086420;28;20429;-78
2022/10/16 09:46:31;;;;;;;2.40;2.30;;;;;;;;;;5086694;28;20935;-78
2022/10/16 09:48:59;;;;;;;1.93;1.80;;;;;;;;;;5078810;28;20823;-78
2022/10/16 09:51:28;;;;;;;2.23;2.13;;;;;;;;;;5070908;28;20762;-79
2022/10/16 09:53:56;;;;;;;1.97;1.83;;;;;;;;;;5070000;28;20960;-78
2022/10/16 09:56:26;;;;;;;2.10;2.00;;;;;;;;;;5071130;28;20822;-78
2022/10/16 09:58:54;;;;;;;3.80;2.10;;;;;;;;;;5070402;28;20448;-78
2022/10/16 10:01:22;;;;;;;7.67;2.23;;;;;;;;;;5070192;28;20490;-78
2022/10/16 10:03:50;;;;;;;3.43;1.97;;;;;;;;;;5069673;28;20440;-78
2022/10/16 10:06:24;;;;;;;2.93;2.73;;;;;;;;;;5070760;28;20884;-79
2022/10/16 10:08:55;;;;;;;3.20;2.90;;;;;;;;;;5070425;28;20933;-78
2022/10/16 10:11:37;;;;;;;3.40;2.73;;;;;;;;;;5069968;28;20464;-78
2022/10/16 10:14:16;;;;;;;7.27;2.20;;;;;;;;;;5069311;28;20433;-77
2022/10/16 10:16:43;;;;;;;2.70;2.50;;;;;;;;;;5070158;28;20440;-78
2022/10/16 10:19:14;;;;;;;1.97;1.83;;;;;;;;;;5070100;28;20445;-78
2022/10/16 10:21:41;;;;;;;4.73;2.27;;;;;;;;;;5069926;28;20869;-78
2022/10/16 10:24:11;;;;;;;3.20;2.33;;;;;;;;;;5069669;28;20539;-78
2022/10/16 10:26:39;;;;;;;2.40;2.20;;;;;;;;;;5073274;28;20453;-77
2022/10/16 10:29:09;;;;;;;4.30;2.50;;;;;;;;;;5076788;28;20968;-77
2022/10/16 10:31:40;;;;;;;4.17;2.23;;;;;;;;;;5071032;28;20928;-78
2022/10/16 10:34:18;;;;;;;3.77;1.77;;;;;;;;;;5071170;28;20823;-78
2022/10/16 10:36:47;;;;;;;3.07;2.33;;;;;;;;;;5070324;28;20971;-77
2022/10/16 10:39:17;;;;;;;2.03;1.77;;;;;;;;;;5070119;28;20429;-78
2022/10/16 10:41:58;;;;;;;3.93;1.80;;;;;;;;;;5069749;28;20483;-78
2022/10/16 10:44:28;;;;;;;2.43;2.23;;;;;;;;;;5069566;28;20440;-77
2022/10/16 10:46:58;;;;;;;2.77;1.70;;;;;;;;;;5069957;28;20835;-77
2022/10/16 10:49:42;;;;;;;2.87;2.53;;;;;;;;;;5070068;28;20455;-78
2022/10/16 10:52:14;;;;;;;3.50;2.20;;;;;;;;;;5069811;28;20838;-78
2022/10/16 10:54:47;;;;;;;2.53;2.33;;;;;;;;;;5070342;28;20444;-77
2022/10/16 10:57:19;;;;;;;2.70;2.50;;;;;;;;;;5070584;28;20448;-77
2022/10/16 11:00:04;;;;;;;5.70;2.20;;;;;;;;;;5070965;28;20444;-79
2022/10/16 11:02:37;;;;;;;1.80;1.70;;;;;;;;;;5069696;28;20725;-76
2022/10/16 11:05:16;;;;;;;8.53;1.80;;;;;;;;;;5070365;28;20447;-77
2022/10/16 11:07:46;;;;;;;2.10;1.77;;;;;;;;;;5069923;28;20452;-78
2022/10/16 11:10:15;;;;;;;1.83;1.70;;;;;;;;;;5070508;28;20461;-80
2022/10/16 11:12:44;;;;;;;3.60;1.80;;;;;;;;;;5060940;28;20609;-78
2022/10/16 11:15:15;;;;;;;2.00;1.80;;;;;;;;;;5053463;28;20433;-79
2022/10/16 11:17:46;;;;;;;2.63;1.70;;;;;;;;;;5053848;28;20433;-78
2022/10/16 11:20:16;;;;;;;3.57;1.80;;;;;;;;;;5053414;28;20476;-78
2022/10/16 11:22:45;;;;;;;3.80;2.20;;;;;;;;;;5052854;28;20481;-78
2022/10/16 11:25:15;;;;;;;1.93;1.83;;;;;;;;;;5054329;28;20453;-78
2022/10/16 11:27:46;;;;;;;6.80;2.77;;;;;;;;;;5053027;28;20457;-77
2022/10/16 11:30:15;;;;;;;3.47;2.10;;;;;;;;;;5053788;28;20477;-78
2022/10/16 11:32:50;;;;;;;3.23;2.00;;;;;;;;;;5053300;28;20441;-77
2022/10/16 11:35:22;;;;;;;2.50;2.07;;;;;;;;;;5055893;28;20436;-78
2022/10/16 11:37:50;;;;;;;2.10;1.83;;;;;;;;;;5057220;28;20441;-77
2022/10/16 11:40:21;;;;;;;2.23;1.97;;;;;;;;;;5060630;28;20465;-76
2022/10/16 11:42:50;;;;;;;2.57;1.90;;;;;;;;;;5066597;28;20552;-77
2022/10/16 11:45:25;;;;;;;2.00;1.90;;;;;;;;;;5053462;28;21055;-78
2022/10/16 11:47:58;;;;;;;5.17;1.97;;;;;;;;;;5053081;28;20822;-77
2022/10/16 11:50:28;;;;;;;3.63;2.10;;;;;;;;;;5052858;28;20450;-78
2022/10/16 11:53:02;;;;;;;2.07;1.97;;;;;;;;;;5052812;28;20465;-78
2022/10/16 11:55:32;;;;;;;5.23;2.40;;;;;;;;;;5053017;28;20950;-78
2022/10/16 11:58:02;;;;;;;2.90;2.33;;;;;;;;;;5052940;28;20449;-78
2022/10/16 12:00:32;;;;;;;2.40;2.00;;;;;;;;;;5053234;28;20465;-78
2022/10/16 12:03:06;;;;;;;1.87;1.77;;;;;;;;;;5052102;28;20480;-79
2022/10/16 12:05:37;;;;;;;1.77;1.67;;;;;;;;;;5052546;28;20441;-78
2022/10/16 12:08:10;;;;;;;2.27;2.10;;;;;;;;;;5052540;28;20485;-79
2022/10/16 12:10:38;;;;;;;4.90;1.70;;;;;;;;;;5052197;28;20465;-78
2022/10/16 12:13:05;;;;;;;1.80;1.40;;;;;;;;;;5051541;28;20964;-78
2022/10/16 12:15:34;;;;;;;3.17;1.73;;;;;;;;;;5052129;28;20933;-78
2022/10/16 12:18:02;;;;;;;1.73;1.27;;;;;;;;;;5052298;28;20826;-78
2022/10/16 12:20:32;;;;;;;1.70;1.60;;;;;;;;;;5052079;28;20462;-79
2022/10/16 12:23:00;;;;;;;1.40;1.30;;;;;;;;;;5050287;28;21023;-78
2022/10/16 12:25:29;;;;;;;3.20;1.50;;;;;;;;;;5052110;28;20446;-78
2022/10/16 12:28:06;;;;;;;3.53;1.70;;;;;;;;;;5052853;28;20453;-80
2022/10/16 12:30:34;;;;;;;6.90;1.30;;;;;;;;;;5052756;28;20469;-79
2022/10/16 12:33:04;;;;;;;1.73;1.10;;;;;;;;;;5051822;28;20445;-78
2022/10/16 12:35:33;;;;;;;1.43;1.33;;;;;;;;;;5051558;28;20499;-78
2022/10/16 12:38:07;;;;;;;1.63;1.53;;;;;;;;;;5052528;28;20446;-79
2022/10/16 12:40:36;;;;;;;2.20;1.47;;;;;;;;;;5051383;28;20465;-79
2022/10/16 12:43:12;;;;;;;4.37;1.73;;;;;;;;;;5051469;28;20758;-79
2022/10/16 12:45:39;;;;;;;1.80;1.70;;;;;;;;;;5051390;28;20468;-78
2022/10/16 12:48:21;;;;;;;1.63;1.50;;;;;;;;;;5051311;28;20827;-79
2022/10/16 12:50:48;;;;;;;2.73;1.67;;;;;;;;;;5051343;28;20472;-77
2022/10/16 12:53:20;;;;;;;4.30;1.70;;;;;;;;;;5050455;28;20942;-78
2022/10/16 12:55:53;;;;;;;2.20;1.77;;;;;;;;;;5051453;28;20450;-79
2022/10/16 12:58:37;;;;;;;3.90;1.40;;;;;;;;;;5052334;28;20448;-78
2022/10/16 13:01:09;;;;;;;1.97;1.77;;;;;;;;;;5051246;28;20476;-77
2022/10/16 13:03:45;;;;;;;2.20;1.97;;;;;;;;;;5050544;28;20484;-78
2022/10/16 13:06:30;;;;;;;2.40;1.87;;;;;;;;;;5051926;28;20445;-79
2022/10/16 13:09:04;;;;;;;2.23;1.60;;;;;;;;;;5051637;28;20437;-79
2022/10/16 13:11:43;;;;;;;1.53;1.43;;;;;;;;;;5054089;28;20469;-78
2022/10/16 13:14:23;;;;;;;2.03;1.40;;;;;;;;;;5070420;28;20444;-79
2022/10/16 13:16:54;;;;;;;1.70;1.30;;;;;;;;;;5071859;28;20449;-79
2022/10/16 13:19:27;;;;;;;1.87;1.70;;;;;;;;;;5071426;28;20459;-78
2022/10/16 13:21:58;;;;;;;1.57;1.47;;;;;;;;;;5070852;28;20456;-79
2022/10/16 13:24:32;;;;;;;1.77;1.67;;;;;;;;;;5069922;28;20443;-78
2022/10/16 13:27:05;;;;;;;1.60;1.50;;;;;;;;;;5070996;28;20445;-78
2022/10/16 13:29:33;;;;;;;2.00;1.43;;;;;;;;;;5074062;28;20456;-78
2022/10/16 13:32:01;;;;;;;1.70;1.60;;;;;;;;;;5076484;28;20468;-79
2022/10/16 13:34:30;;;;;;;1.30;1.20;;;;;;;;;;5076311;28;20948;-78
2022/10/16 13:36:57;;;;;;;1.50;1.50;;;;;;;;;;5076951;28;20455;-77
2022/10/16 13:39:25;;;;;;;1.80;1.70;;;;;;;;;;5074542;28;20452;-78
2022/10/16 13:42:05;;;;;;;2.00;1.80;;;;;;;;;;5073116;28;20469;-79
2022/10/16 13:44:37;;;;;;;1.40;1.40;;;;;;;;;;5070153;28;20935;-78
2022/10/16 13:47:04;;;;;;;4.17;1.70;;;;;;;;;;5070554;28;20829;-78
2022/10/16 13:49:32;;;;;;;2.50;2.10;;;;;;;;;;5071342;28;20562;-79
2022/10/16 13:52:00;;;;;;;2.00;1.90;;;;;;;;;;5071412;28;20476;-78
2022/10/16 13:54:29;;;;;;;2.10;1.73;;;;;;;;;;5069830;28;20948;-79
2022/10/16 13:56:56;;;;;;;8.20;2.03;;;;;;;;;;5070726;28;20491;-78
2022/10/16 13:59:24;;;;;;;2.10;2.00;;;;;;;;;;5070790;28;20445;-78
2022/10/16 14:01:53;;;;;;;1.80;1.70;;;;;;;;;;5070965;28;20822;-78
2022/10/16 14:04:21;;;;;;;2.57;2.10;;;;;;;;;;5070734;28;20479;-79
2022/10/16 14:06:51;;;;;;;3.67;1.70;;;;;;;;;;5071972;28;20463;-79
2022/10/16 14:09:22;;;;;;;2.80;1.90;;;;;;;;;;5072085;28;20445;-79
2022/10/16 14:11:51;;;;;;;2.83;2.63;;;;;;;;;;5071730;28;20472;-79
2022/10/16 14:14:18;;;;;;;2.50;1.90;;;;;;;;;;5070508;28;20523;-78
2022/10/16 14:16:46;;;;;;;4.33;2.00;;;;;;;;;;5070837;28;20854;-78
2022/10/16 14:19:16;;;;;;;2.10;1.90;;;;;;;;;;5071010;28;20448;-77
2022/10/16 14:21:44;;;;;;;2.70;1.90;;;;;;;;;;5070579;28;20467;-78
2022/10/16 14:24:15;;;;;;;2.80;1.60;;;;;;;;;;5069804;28;20476;-78
2022/10/16 14:26:43;;;;;;;1.93;1.83;;;;;;;;;;5071508;28;20614;-79
2022/10/16 14:29:14;;;;;;;1.93;1.77;;;;;;;;;;5071706;28;20441;-79
2022/10/16 14:31:42;;;;;;;2.40;2.20;;;;;;;;;;5071894;28;20757;-78
2022/10/16 14:34:25;;;;;;;2.20;1.90;;;;;;;;;;5071164;28;20578;-79
2022/10/16 14:36:52;;;;;;;4.57;2.50;;;;;;;;;;5070969;28;20918;-78
2022/10/16 14:39:21;;;;;;;2.33;2.13;;;;;;;;;;5073204;28;20462;-78
2022/10/16 14:41:49;;;;;;;2.63;2.23;;;;;;;;;;5076633;28;20456;-78
2022/10/16 14:44:18;;;;;;;2.53;2.20;;;;;;;;;;5078575;28;20476;-78
2022/10/16 14:46:46;;;;;;;2.80;2.23;;;;;;;;;;5078387;28;20445;-78
2022/10/16 14:49:19;;;;;;;2.63;2.23;;;;;;;;;;5077095;28;20590;-78
2022/10/16 14:51:46;;;;;;;2.23;2.13;;;;;;;;;;5080698;28;20559;-80
2022/10/16 14:54:13;;;;;;;2.20;1.80;;;;;;;;;;5074246;28;20445;-79